createdAt,value
2018-05-03T00:00:17.917Z,0.00
2018-05-03T00:01:17.937Z,0.00
2018-05-03T00:02:17.964Z,0.00
2018-05-03T00:03:17.995Z,0.00
2018-05-03T00:04:18.013Z,0.00
2018-05-03T00:05:18.055Z,0.00
2018-05-03T00:06:18.040Z,0.00
2018-05-03T00:07:18.062Z,0.00
2018-05-03T00:08:18.173Z,0.00
2018-05-03T00:09:18.106Z,0.00
2018-05-03T00:10:18.126Z,0.00
2018-05-03T00:11:18.154Z,0.00
2018-05-03T00:12:18.169Z,0.00
2018-05-03T00:13:18.244Z,0.00
2018-05-03T00:14:18.219Z,0.00
2018-05-03T00:15:18.226Z,0.00
2018-05-03T00:16:18.275Z,0.00
2018-05-03T00:17:18.275Z,0.00
2018-05-03T00:18:18.337Z,0.00
2018-05-03T00:19:18.310Z,0.00
2018-05-03T00:20:18.343Z,0.00
2018-05-03T00:21:18.357Z,0.00
2018-05-03T00:22:18.380Z,0.00
2018-05-03T00:23:18.393Z,0.00
2018-05-03T00:24:18.416Z,0.00
2018-05-03T00:25:18.437Z,0.00
2018-05-03T00:26:18.457Z,0.00
2018-05-03T00:27:18.484Z,0.00
2018-05-03T00:28:18.499Z,0.00
2018-05-03T00:29:18.520Z,0.00
2018-05-03T00:30:18.539Z,0.00
2018-05-03T00:31:18.561Z,0.00
2018-05-03T00:32:18.583Z,0.00
2018-05-03T00:33:18.599Z,0.00
2018-05-03T00:34:18.628Z,0.00
2018-05-03T00:35:18.643Z,0.00
2018-05-03T00:36:18.674Z,0.00
2018-05-03T00:37:18.683Z,0.00
2018-05-03T00:38:18.701Z,0.00
2018-05-03T00:39:18.721Z,0.00
2018-05-03T00:40:18.744Z,0.00
2018-05-03T00:41:18.767Z,0.00
2018-05-03T00:42:18.793Z,0.00
2018-05-03T00:43:18.806Z,0.00
2018-05-03T00:44:18.832Z,0.00
2018-05-03T00:45:18.880Z,0.00
2018-05-03T00:46:18.867Z,0.00
2018-05-03T00:47:18.891Z,0.00
2018-05-03T00:48:18.915Z,0.00
2018-05-03T00:49:18.934Z,0.00
2018-05-03T00:50:18.949Z,0.00
2018-05-03T00:51:18.974Z,0.00
2018-05-03T00:52:18.990Z,0.00
2018-05-03T00:53:19.010Z,0.00
2018-05-03T00:54:19.028Z,0.00
2018-05-03T00:55:19.061Z,0.00
2018-05-03T00:56:19.069Z,0.00
2018-05-03T00:57:19.096Z,0.00
2018-05-03T00:58:19.111Z,0.00
2018-05-03T00:59:19.137Z,0.00
2018-05-03T01:00:19.159Z,0.00
2018-05-03T01:01:19.173Z,0.00
2018-05-03T01:02:19.191Z,0.00
2018-05-03T01:03:19.221Z,0.00
2018-05-03T01:04:19.233Z,0.00
2018-05-03T01:05:19.266Z,0.00
2018-05-03T01:06:19.281Z,0.00
2018-05-03T01:07:19.299Z,0.00
2018-05-03T01:08:19.320Z,0.00
2018-05-03T01:09:19.345Z,0.00
2018-05-03T01:10:19.361Z,0.00
2018-05-03T01:11:19.377Z,0.00
2018-05-03T01:12:19.397Z,0.00
2018-05-03T01:13:19.427Z,0.00
2018-05-03T01:14:19.439Z,0.00
2018-05-03T01:15:19.462Z,0.00
2018-05-03T01:16:19.484Z,0.00
2018-05-03T01:17:19.506Z,0.00
2018-05-03T01:18:19.524Z,0.00
2018-05-03T01:19:19.541Z,0.00
2018-05-03T01:20:19.561Z,0.00
2018-05-03T01:21:19.603Z,0.00
2018-05-03T01:22:19.605Z,0.00
2018-05-03T01:23:19.627Z,0.00
2018-05-03T01:24:19.649Z,0.00
2018-05-03T01:25:19.673Z,0.00
2018-05-03T01:26:19.688Z,0.00
2018-05-03T01:27:19.707Z,0.00
2018-05-03T01:28:19.728Z,0.00
2018-05-03T01:29:19.746Z,0.00
2018-05-03T01:30:19.766Z,0.00
2018-05-03T01:31:19.791Z,0.00
2018-05-03T01:32:19.809Z,0.00
2018-05-03T01:33:19.832Z,0.00
2018-05-03T01:34:19.851Z,0.00
2018-05-03T01:35:19.871Z,0.00
2018-05-03T01:36:19.890Z,0.00
2018-05-03T01:37:19.919Z,0.00
2018-05-03T01:38:19.932Z,0.00
2018-05-03T01:39:19.950Z,0.00
2018-05-03T01:40:19.972Z,0.00
2018-05-03T01:41:19.997Z,0.00
2018-05-03T01:42:20.017Z,0.00
2018-05-03T01:43:20.038Z,0.00
2018-05-03T01:44:20.056Z,0.00
2018-05-03T01:45:20.075Z,0.00
2018-05-03T01:46:20.096Z,0.00
2018-05-03T01:47:20.117Z,0.00
2018-05-03T01:48:20.142Z,0.00
2018-05-03T01:49:20.158Z,0.00
2018-05-03T01:50:20.189Z,0.00
2018-05-03T01:51:20.206Z,0.00
2018-05-03T01:52:20.220Z,0.00
2018-05-03T01:53:20.248Z,0.00
2018-05-03T01:54:20.264Z,0.00
2018-05-03T01:55:20.286Z,0.00
2018-05-03T01:56:20.296Z,0.00
2018-05-03T01:57:20.328Z,0.00
2018-05-03T01:58:20.339Z,0.00
2018-05-03T01:59:20.376Z,0.00
2018-05-03T02:00:20.388Z,0.00
2018-05-03T02:01:20.403Z,0.00
2018-05-03T02:02:20.419Z,0.00
2018-05-03T02:03:20.445Z,0.00
2018-05-03T02:04:20.467Z,0.00
2018-05-03T02:05:20.479Z,0.00
2018-05-03T02:06:20.517Z,0.00
2018-05-03T02:07:20.520Z,0.00
2018-05-03T02:08:20.581Z,0.00
2018-05-03T02:09:20.568Z,0.00
2018-05-03T02:10:20.594Z,0.00
2018-05-03T02:11:20.620Z,0.00
2018-05-03T02:12:20.628Z,0.00
2018-05-03T02:13:20.644Z,0.00
2018-05-03T02:14:20.668Z,0.00
2018-05-03T02:15:20.686Z,0.00
2018-05-03T02:16:20.709Z,0.00
2018-05-03T02:17:20.729Z,0.00
2018-05-03T02:18:20.748Z,0.00
2018-05-03T02:19:20.778Z,0.00
2018-05-03T02:20:20.786Z,0.00
2018-05-03T02:21:20.808Z,0.00
2018-05-03T02:22:20.824Z,0.00
2018-05-03T02:23:20.849Z,0.00
2018-05-03T02:24:20.868Z,0.00
2018-05-03T02:25:20.884Z,0.00
2018-05-03T02:26:20.913Z,0.00
2018-05-03T02:27:20.935Z,0.00
2018-05-03T02:28:20.949Z,0.00
2018-05-03T02:29:20.972Z,0.00
2018-05-03T02:30:20.988Z,0.00
2018-05-03T02:31:21.012Z,0.00
2018-05-03T02:32:21.037Z,0.00
2018-05-03T02:33:21.060Z,0.00
2018-05-03T02:34:21.070Z,0.00
2018-05-03T02:35:21.095Z,0.00
2018-05-03T02:36:21.107Z,0.00
2018-05-03T02:37:21.135Z,0.00
2018-05-03T02:38:21.155Z,0.00
2018-05-03T02:39:21.174Z,0.00
2018-05-03T02:40:21.188Z,0.00
2018-05-03T02:41:21.216Z,0.00
2018-05-03T02:42:21.251Z,0.00
2018-05-03T02:43:21.257Z,0.00
2018-05-03T02:44:21.275Z,0.00
2018-05-03T02:45:21.296Z,0.00
2018-05-03T02:46:21.320Z,0.00
2018-05-03T02:47:21.334Z,0.00
2018-05-03T02:48:21.348Z,0.00
2018-05-03T02:49:21.373Z,0.00
2018-05-03T02:50:21.399Z,0.00
2018-05-03T02:51:21.414Z,0.00
2018-05-03T02:52:21.432Z,0.00
2018-05-03T02:53:21.449Z,0.00
2018-05-03T02:54:21.476Z,0.00
2018-05-03T02:55:21.495Z,0.00
2018-05-03T02:56:21.523Z,0.00
2018-05-03T02:57:21.540Z,0.00
2018-05-03T02:58:21.550Z,0.00
2018-05-03T02:59:21.566Z,0.00
2018-05-03T03:00:21.590Z,0.00
2018-05-03T03:01:21.614Z,0.00
2018-05-03T03:02:21.710Z,0.00
2018-05-03T03:03:21.655Z,0.00
2018-05-03T03:04:21.686Z,0.00
2018-05-03T03:05:21.696Z,0.00
2018-05-03T03:06:21.716Z,0.00
2018-05-03T03:07:21.743Z,0.00
2018-05-03T03:08:21.750Z,0.00
2018-05-03T03:09:21.779Z,0.00
2018-05-03T03:10:21.789Z,0.00
2018-05-03T03:11:21.815Z,0.00
2018-05-03T03:12:21.833Z,0.00
2018-05-03T03:13:21.869Z,0.00
2018-05-03T03:14:21.875Z,0.00
2018-05-03T03:15:21.888Z,0.00
2018-05-03T03:16:21.912Z,0.00
2018-05-03T03:17:21.935Z,0.00
2018-05-03T03:18:21.960Z,0.00
2018-05-03T03:19:21.971Z,0.00
2018-05-03T03:20:21.997Z,0.00
2018-05-03T03:21:22.011Z,0.00
2018-05-03T03:22:22.036Z,0.00
2018-05-03T03:23:22.065Z,0.00
2018-05-03T03:24:22.076Z,0.00
2018-05-03T03:25:22.092Z,0.00
2018-05-03T03:26:22.121Z,0.00
2018-05-03T03:27:22.145Z,0.00
2018-05-03T03:28:22.156Z,0.00
2018-05-03T03:29:22.180Z,0.00
2018-05-03T03:30:22.200Z,0.00
2018-05-03T03:31:22.212Z,0.00
2018-05-03T03:32:22.237Z,0.00
2018-05-03T03:33:22.259Z,0.00
2018-05-03T03:34:22.276Z,0.00
2018-05-03T03:35:22.297Z,0.00
2018-05-03T03:36:22.344Z,0.00
2018-05-03T03:37:22.336Z,0.00
2018-05-03T03:38:22.356Z,0.00
2018-05-03T03:39:22.377Z,0.00
2018-05-03T03:40:22.410Z,0.00
2018-05-03T03:41:22.421Z,0.00
2018-05-03T03:42:22.431Z,0.00
2018-05-03T03:43:22.457Z,0.00
2018-05-03T03:44:22.480Z,0.00
2018-05-03T03:45:22.498Z,0.00
2018-05-03T03:46:22.522Z,0.00
2018-05-03T03:47:22.554Z,0.00
2018-05-03T03:48:22.555Z,0.00
2018-05-03T03:49:22.580Z,0.00
2018-05-03T03:50:22.602Z,4.00
2018-05-03T03:51:22.616Z,4.00
2018-05-03T03:52:22.642Z,4.00
2018-05-03T03:53:22.684Z,0.00
2018-05-03T03:54:22.673Z,0.00
2018-05-03T03:55:22.699Z,4.00
2018-05-03T03:56:22.718Z,4.00
2018-05-03T03:57:22.738Z,4.00
2018-05-03T03:58:22.766Z,4.00
2018-05-03T03:59:22.779Z,4.00
2018-05-03T04:00:22.797Z,4.00
2018-05-03T04:01:22.817Z,4.00
2018-05-03T04:02:22.840Z,4.00
2018-05-03T04:03:22.857Z,8.00
2018-05-03T04:04:22.875Z,4.00
2018-05-03T04:05:22.924Z,8.00
2018-05-03T04:06:22.926Z,8.00
2018-05-03T04:07:22.934Z,8.00
2018-05-03T04:08:22.953Z,12.00
2018-05-03T04:09:22.979Z,12.00
2018-05-03T04:10:22.993Z,12.00
2018-05-03T04:11:23.015Z,12.00
2018-05-03T04:12:23.042Z,12.00
2018-05-03T04:13:23.057Z,16.00
2018-05-03T04:14:23.081Z,16.00
2018-05-03T04:15:23.099Z,20.00
2018-05-03T04:16:23.193Z,20.00
2018-05-03T04:17:23.143Z,20.00
2018-05-03T04:18:23.163Z,24.00
2018-05-03T04:19:23.175Z,24.00
2018-05-03T04:20:23.190Z,28.00
2018-05-03T04:21:23.213Z,28.00
2018-05-03T04:22:23.397Z,28.00
2018-05-03T04:23:23.284Z,32.00
2018-05-03T04:24:23.271Z,32.00
2018-05-03T04:25:23.294Z,36.00
2018-05-03T04:26:23.316Z,36.00
2018-05-03T04:27:23.335Z,36.00
2018-05-03T04:28:23.355Z,36.00
2018-05-03T04:29:23.371Z,40.00
2018-05-03T04:30:23.398Z,44.00
2018-05-03T04:31:23.413Z,44.00
2018-05-03T04:32:23.439Z,44.00
2018-05-03T04:33:23.451Z,48.00
2018-05-03T04:34:23.474Z,48.00
2018-05-03T04:35:23.501Z,52.00
2018-05-03T04:36:23.520Z,52.00
2018-05-03T04:37:23.542Z,52.00
2018-05-03T04:38:23.553Z,56.00
2018-05-03T04:39:23.580Z,56.00
2018-05-03T04:40:23.607Z,56.00
2018-05-03T04:41:23.649Z,60.00
2018-05-03T04:42:23.633Z,60.00
2018-05-03T04:43:23.661Z,60.00
2018-05-03T04:44:23.687Z,60.00
2018-05-03T04:45:23.703Z,64.00
2018-05-03T04:46:23.709Z,68.00
2018-05-03T04:47:23.740Z,68.00
2018-05-03T04:48:23.760Z,72.00
2018-05-03T04:49:23.780Z,76.00
2018-05-03T04:50:23.800Z,80.00
2018-05-03T04:51:23.853Z,80.00
2018-05-03T04:52:23.836Z,84.00
2018-05-03T04:53:23.863Z,84.00
2018-05-03T04:54:23.870Z,88.00
2018-05-03T04:55:23.901Z,92.00
2018-05-03T04:56:23.920Z,92.00
2018-05-03T04:57:23.929Z,100.00
2018-05-03T04:58:23.951Z,100.00
2018-05-03T04:59:23.976Z,100.00
2018-05-03T05:00:23.999Z,100.00
2018-05-03T05:01:24.013Z,100.00
2018-05-03T05:02:24.036Z,104.00
2018-05-03T05:03:24.058Z,112.00
2018-05-03T05:04:24.076Z,116.00
2018-05-03T05:05:24.097Z,116.00
2018-05-03T05:06:24.119Z,124.00
2018-05-03T05:07:24.153Z,124.00
2018-05-03T05:08:24.224Z,124.00
2018-05-03T05:09:24.178Z,128.00
2018-05-03T05:10:24.201Z,132.00
2018-05-03T05:11:24.221Z,132.00
2018-05-03T05:12:24.234Z,140.00
2018-05-03T05:13:24.256Z,144.00
2018-05-03T05:14:24.302Z,152.00
2018-05-03T05:15:24.308Z,152.00
2018-05-03T05:16:24.313Z,152.00
2018-05-03T05:17:24.342Z,152.00
2018-05-03T05:18:24.375Z,156.00
2018-05-03T05:19:24.374Z,152.00
2018-05-03T05:20:24.414Z,156.00
2018-05-03T05:21:24.419Z,152.00
2018-05-03T05:22:24.456Z,152.00
2018-05-03T05:23:24.452Z,152.00
2018-05-03T05:24:24.482Z,152.00
2018-05-03T05:25:24.499Z,152.00
2018-05-03T05:26:24.525Z,160.00
2018-05-03T05:27:24.539Z,168.00
2018-05-03T05:28:24.559Z,172.00
2018-05-03T05:29:24.579Z,184.00
2018-05-03T05:30:24.592Z,188.00
2018-05-03T05:31:24.621Z,192.00
2018-05-03T05:32:24.720Z,196.00
2018-05-03T05:33:24.661Z,200.00
2018-05-03T05:34:24.682Z,208.00
2018-05-03T05:35:24.695Z,212.00
2018-05-03T05:36:24.725Z,216.00
2018-05-03T05:37:24.739Z,216.00
2018-05-03T05:38:24.774Z,212.00
2018-05-03T05:39:24.781Z,216.00
2018-05-03T05:40:24.821Z,216.00
2018-05-03T05:41:24.825Z,216.00
2018-05-03T05:42:24.837Z,220.00
2018-05-03T05:43:24.858Z,216.00
2018-05-03T05:44:24.901Z,216.00
2018-05-03T05:45:24.897Z,212.00
2018-05-03T05:46:24.922Z,212.00
2018-05-03T05:47:24.944Z,204.00
2018-05-03T05:48:24.957Z,200.00
2018-05-03T05:49:24.989Z,196.00
2018-05-03T05:50:24.997Z,200.00
2018-05-03T05:51:25.017Z,200.00
2018-05-03T05:52:25.045Z,204.00
2018-05-03T05:53:25.059Z,204.00
2018-05-03T05:54:25.093Z,208.00
2018-05-03T05:55:25.107Z,212.00
2018-05-03T05:56:25.119Z,220.00
2018-05-03T05:57:25.158Z,228.00
2018-05-03T05:58:25.162Z,232.00
2018-05-03T05:59:25.184Z,236.00
2018-05-03T06:00:25.207Z,244.00
2018-05-03T06:01:25.220Z,252.00
2018-05-03T06:02:25.248Z,264.00
2018-05-03T06:03:25.256Z,276.00
2018-05-03T06:04:25.283Z,284.00
2018-05-03T06:05:25.317Z,292.00
2018-05-03T06:06:25.328Z,304.00
2018-05-03T06:07:25.347Z,312.00
2018-05-03T06:08:25.369Z,324.00
2018-05-03T06:09:25.400Z,340.00
2018-05-03T06:10:25.435Z,348.00
2018-05-03T06:11:25.429Z,356.00
2018-05-03T06:12:25.509Z,364.00
2018-05-03T06:13:25.460Z,372.00
2018-05-03T06:14:25.488Z,376.00
2018-05-03T06:15:25.503Z,380.00
2018-05-03T06:16:25.527Z,376.00
2018-05-03T06:17:25.548Z,376.00
2018-05-03T06:18:25.590Z,376.00
2018-05-03T06:19:25.589Z,376.00
2018-05-03T06:20:25.605Z,376.00
2018-05-03T06:21:25.626Z,364.00
2018-05-03T06:22:25.646Z,352.00
2018-05-03T06:23:25.669Z,336.00
2018-05-03T06:24:25.689Z,316.00
2018-05-03T06:25:25.712Z,300.00
2018-05-03T06:26:25.730Z,300.00
2018-05-03T06:27:25.752Z,300.00
2018-05-03T06:28:25.767Z,308.00
2018-05-03T06:29:25.795Z,320.00
2018-05-03T06:30:25.814Z,340.00
2018-05-03T06:31:25.831Z,360.00
2018-05-03T06:32:25.852Z,372.00
2018-05-03T06:33:25.876Z,376.00
2018-05-03T06:34:25.893Z,372.00
2018-05-03T06:35:25.914Z,364.00
2018-05-03T06:36:25.933Z,356.00
2018-05-03T06:37:25.960Z,356.00
2018-05-03T06:38:25.979Z,356.00
2018-05-03T06:39:25.992Z,360.00
2018-05-03T06:40:26.022Z,364.00
2018-05-03T06:41:26.038Z,364.00
2018-05-03T06:42:26.054Z,364.00
2018-05-03T06:43:26.084Z,368.00
2018-05-03T06:44:26.101Z,376.00
2018-05-03T06:45:26.153Z,388.00
2018-05-03T06:46:26.141Z,404.00
2018-05-03T06:47:26.168Z,424.00
2018-05-03T06:48:26.176Z,436.00
2018-05-03T06:49:26.201Z,444.00
2018-05-03T06:50:26.220Z,448.00
2018-05-03T06:51:26.292Z,456.00
2018-05-03T06:52:26.258Z,456.00
2018-05-03T06:53:26.276Z,456.00
2018-05-03T06:54:26.299Z,448.00
2018-05-03T06:55:26.328Z,440.00
2018-05-03T06:56:26.339Z,428.00
2018-05-03T06:57:26.361Z,412.00
2018-05-03T06:58:26.380Z,396.00
2018-05-03T06:59:26.400Z,388.00
2018-05-03T07:00:26.421Z,392.00
2018-05-03T07:01:26.447Z,412.00
2018-05-03T07:02:26.459Z,440.00
2018-05-03T07:03:26.493Z,476.00
2018-05-03T07:04:26.568Z,496.00
2018-05-03T07:05:26.530Z,512.00
2018-05-03T07:06:26.553Z,520.00
2018-05-03T07:07:26.570Z,536.00
2018-05-03T07:08:26.591Z,548.00
2018-05-03T07:09:26.613Z,560.00
2018-05-03T07:10:26.629Z,584.00
2018-05-03T07:11:26.652Z,600.00
2018-05-03T07:12:26.673Z,604.00
2018-05-03T07:13:26.687Z,616.00
2018-05-03T07:14:26.714Z,628.00
2018-05-03T07:15:26.731Z,648.00
2018-05-03T07:16:26.758Z,672.00
2018-05-03T07:17:26.778Z,696.00
2018-05-03T07:18:26.791Z,712.00
2018-05-03T07:19:26.816Z,724.00
2018-05-03T07:20:26.833Z,736.00
2018-05-03T07:21:26.859Z,756.00
2018-05-03T07:22:26.872Z,780.00
2018-05-03T07:23:26.899Z,804.00
2018-05-03T07:24:26.923Z,828.00
2018-05-03T07:25:26.945Z,844.00
2018-05-03T07:26:26.960Z,872.00
2018-05-03T07:27:26.979Z,884.00
2018-05-03T07:28:26.996Z,872.00
2018-05-03T07:29:27.087Z,864.00
2018-05-03T07:30:27.050Z,872.00
2018-05-03T07:31:27.080Z,888.00
2018-05-03T07:32:27.088Z,900.00
2018-05-03T07:33:27.111Z,900.00
2018-05-03T07:34:27.127Z,908.00
2018-05-03T07:35:27.146Z,920.00
2018-05-03T07:36:27.173Z,932.00
2018-05-03T07:37:27.195Z,932.00
2018-05-03T07:38:27.208Z,940.00
2018-05-03T07:39:27.232Z,936.00
2018-05-03T07:40:27.282Z,924.00
2018-05-03T07:41:27.271Z,904.00
2018-05-03T07:42:27.292Z,888.00
2018-05-03T07:43:27.318Z,860.00
2018-05-03T07:44:27.334Z,844.00
2018-05-03T07:45:27.358Z,824.00
2018-05-03T07:46:27.376Z,812.00
2018-05-03T07:47:27.401Z,808.00
2018-05-03T07:48:27.442Z,808.00
2018-05-03T07:49:27.438Z,808.00
2018-05-03T07:50:27.463Z,800.00
2018-05-03T07:51:27.479Z,804.00
2018-05-03T07:52:27.503Z,808.00
2018-05-03T07:53:27.529Z,812.00
2018-05-03T07:54:27.547Z,828.00
2018-05-03T07:55:27.575Z,848.00
2018-05-03T07:56:27.616Z,864.00
2018-05-03T07:57:27.605Z,880.00
2018-05-03T07:58:27.629Z,904.00
2018-05-03T07:59:27.654Z,928.00
2018-05-03T08:00:27.674Z,936.00
2018-05-03T08:01:27.699Z,932.00
2018-05-03T08:02:27.738Z,920.00
2018-05-03T08:03:27.735Z,912.00
2018-05-03T08:04:27.756Z,900.00
2018-05-03T08:05:27.777Z,912.00
2018-05-03T08:06:27.797Z,908.00
2018-05-03T08:07:27.819Z,932.00
2018-05-03T08:08:27.847Z,940.00
2018-05-03T08:09:27.862Z,944.00
2018-05-03T08:10:27.885Z,928.00
2018-05-03T08:11:27.904Z,924.00
2018-05-03T08:12:27.927Z,920.00
2018-05-03T08:13:27.943Z,932.00
2018-05-03T08:14:27.962Z,944.00
2018-05-03T08:15:27.988Z,928.00
2018-05-03T08:16:28.017Z,964.00
2018-05-03T08:17:28.037Z,960.00
2018-05-03T08:18:28.050Z,952.00
2018-05-03T08:19:28.068Z,960.00
2018-05-03T08:20:28.095Z,964.00
2018-05-03T08:21:28.122Z,964.00
2018-05-03T08:22:28.219Z,972.00
2018-05-03T08:23:28.158Z,984.00
2018-05-03T08:24:28.175Z,1012.00
2018-05-03T08:25:28.203Z,1012.00
2018-05-03T08:26:28.216Z,988.00
2018-05-03T08:27:28.250Z,972.00
2018-05-03T08:28:28.360Z,960.00
2018-05-03T08:29:28.284Z,956.00
2018-05-03T08:30:28.317Z,976.00
2018-05-03T08:31:28.324Z,984.00
2018-05-03T08:32:28.350Z,992.00
2018-05-03T08:33:28.365Z,1008.00
2018-05-03T08:34:28.391Z,1056.00
2018-05-03T08:35:28.419Z,1096.00
2018-05-03T08:36:28.437Z,1128.00
2018-05-03T08:37:28.458Z,1128.00
2018-05-03T08:38:28.474Z,1120.00
2018-05-03T08:39:28.496Z,1104.00
2018-05-03T08:40:28.517Z,1072.00
2018-05-03T08:41:28.544Z,1064.00
2018-05-03T08:42:28.568Z,1064.00
2018-05-03T08:43:28.584Z,1072.00
2018-05-03T08:44:28.631Z,1088.00
2018-05-03T08:45:28.628Z,1128.00
2018-05-03T08:46:28.648Z,1160.00
2018-05-03T08:47:28.668Z,1208.00
2018-05-03T08:48:28.685Z,1216.00
2018-05-03T08:49:28.707Z,1256.00
2018-05-03T08:50:28.726Z,1272.00
2018-05-03T08:51:28.752Z,1264.00
2018-05-03T08:52:28.774Z,1280.00
2018-05-03T08:53:28.792Z,1304.00
2018-05-03T08:54:28.813Z,1320.00
2018-05-03T08:55:28.839Z,1320.00
2018-05-03T08:56:28.857Z,1344.00
2018-05-03T08:57:28.885Z,1372.00
2018-05-03T08:58:28.912Z,1388.00
2018-05-03T08:59:28.926Z,1424.00
2018-05-03T09:00:28.954Z,1404.00
2018-05-03T09:01:28.973Z,1396.00
2018-05-03T09:02:28.997Z,1420.00
2018-05-03T09:03:29.016Z,1380.00
2018-05-03T09:04:29.032Z,1420.00
2018-05-03T09:05:29.060Z,1396.00
2018-05-03T09:06:29.074Z,1416.00
2018-05-03T09:07:29.141Z,1424.00
2018-05-03T09:08:29.160Z,1428.00
2018-05-03T09:09:29.146Z,1436.00
2018-05-03T09:10:29.167Z,1468.00
2018-05-03T09:11:29.186Z,1468.00
2018-05-03T09:12:29.207Z,1500.00
2018-05-03T09:13:29.223Z,1520.00
2018-05-03T09:14:29.257Z,1500.00
2018-05-03T09:15:29.275Z,1504.00
2018-05-03T09:16:29.296Z,1532.00
2018-05-03T09:17:29.320Z,1548.00
2018-05-03T09:18:29.337Z,1556.00
2018-05-03T09:19:29.354Z,1604.00
2018-05-03T09:20:29.380Z,1640.00
2018-05-03T09:21:29.404Z,1620.00
2018-05-03T09:22:29.471Z,1572.00
2018-05-03T09:23:29.459Z,1544.00
2018-05-03T09:24:29.482Z,1536.00
2018-05-03T09:25:29.492Z,1504.00
2018-05-03T09:26:29.516Z,1500.00
2018-05-03T09:27:29.533Z,1512.00
2018-05-03T09:28:29.556Z,1524.00
2018-05-03T09:29:29.578Z,1580.00
2018-05-03T09:30:29.601Z,1680.00
2018-05-03T09:31:29.620Z,1680.00
2018-05-03T09:32:29.644Z,1708.00
2018-05-03T09:33:29.674Z,1728.00
2018-05-03T09:34:29.707Z,1712.00
2018-05-03T09:35:29.718Z,1688.00
2018-05-03T09:36:29.735Z,1632.00
2018-05-03T09:37:29.755Z,1568.00
2018-05-03T09:38:29.778Z,1520.00
2018-05-03T09:39:29.802Z,1512.00
2018-05-03T09:40:29.824Z,1540.00
2018-05-03T09:41:29.861Z,1584.00
2018-05-03T09:42:29.867Z,1624.00
2018-05-03T09:43:29.891Z,1608.00
2018-05-03T09:44:29.995Z,1596.00
2018-05-03T09:45:29.934Z,1544.00
2018-05-03T09:46:29.955Z,1540.00
2018-05-03T09:47:29.980Z,1552.00
2018-05-03T09:48:30.004Z,1548.00
2018-05-03T09:49:30.026Z,1556.00
2018-05-03T09:50:30.044Z,1616.00
2018-05-03T09:51:30.069Z,1616.00
2018-05-03T09:52:30.112Z,1648.00
2018-05-03T09:53:30.114Z,1676.00
2018-05-03T09:54:30.130Z,1684.00
2018-05-03T09:55:30.159Z,1704.00
2018-05-03T09:56:30.181Z,1708.00
2018-05-03T09:57:30.201Z,1736.00
2018-05-03T09:58:30.227Z,1704.00
2018-05-03T09:59:30.267Z,1624.00
2018-05-03T10:00:30.270Z,1520.00
2018-05-03T10:01:30.289Z,1516.00
2018-05-03T10:02:30.317Z,1500.00
2018-05-03T10:03:30.341Z,1580.00
2018-05-03T10:04:30.361Z,1652.00
2018-05-03T10:05:30.385Z,1660.00
2018-05-03T10:06:30.416Z,1776.00
2018-05-03T10:07:30.426Z,1844.00
2018-05-03T10:08:30.454Z,1980.00
2018-05-03T10:09:30.476Z,2036.00
2018-05-03T10:10:30.501Z,2028.00
2018-05-03T10:11:30.532Z,2000.00
2018-05-03T10:12:30.544Z,1928.00
2018-05-03T10:13:30.567Z,1916.00
2018-05-03T10:14:30.609Z,1916.00
2018-05-03T10:15:30.606Z,1964.00
2018-05-03T10:16:30.632Z,1904.00
2018-05-03T10:17:30.652Z,1924.00
2018-05-03T10:18:30.685Z,1892.00
2018-05-03T10:19:30.708Z,1892.00
2018-05-03T10:20:30.725Z,1928.00
2018-05-03T10:21:30.745Z,1944.00
2018-05-03T10:22:30.846Z,1916.00
2018-05-03T10:23:30.792Z,1892.00
2018-05-03T10:24:30.815Z,1812.00
2018-05-03T10:25:30.836Z,1776.00
2018-05-03T10:26:30.856Z,1744.00
2018-05-03T10:27:30.882Z,1768.00
2018-05-03T10:28:30.902Z,1752.00
2018-05-03T10:29:30.936Z,1756.00
2018-05-03T10:30:30.947Z,1836.00
2018-05-03T10:31:30.978Z,1880.00
2018-05-03T10:32:31.003Z,1940.00
2018-05-03T10:33:31.019Z,1996.00
2018-05-03T10:34:31.036Z,2008.00
2018-05-03T10:35:31.067Z,2016.00
2018-05-03T10:36:31.084Z,2016.00
2018-05-03T10:37:31.111Z,2016.00
2018-05-03T10:38:31.132Z,2032.00
2018-05-03T10:39:31.154Z,2064.00
2018-05-03T10:40:31.173Z,2116.00
2018-05-03T10:41:31.207Z,2052.00
2018-05-03T10:42:31.222Z,2080.00
2018-05-03T10:43:31.240Z,2120.00
2018-05-03T10:44:31.275Z,2064.00
2018-05-03T10:45:31.298Z,2044.00
2018-05-03T10:46:31.313Z,2072.00
2018-05-03T10:47:31.343Z,2076.00
2018-05-03T10:48:31.361Z,2148.00
2018-05-03T10:49:31.386Z,2048.00
2018-05-03T10:50:31.407Z,1932.00
2018-05-03T10:51:31.432Z,1828.00
2018-05-03T10:52:31.453Z,1744.00
2018-05-03T10:53:31.482Z,1708.00
2018-05-03T10:54:31.507Z,1704.00
2018-05-03T10:55:31.526Z,1676.00
2018-05-03T10:56:31.547Z,1692.00
2018-05-03T10:57:31.611Z,1704.00
2018-05-03T10:58:31.588Z,1760.00
2018-05-03T10:59:31.613Z,1688.00
2018-05-03T11:00:31.645Z,1772.00
2018-05-03T11:01:31.659Z,1740.00
2018-05-03T11:02:31.685Z,1836.00
2018-05-03T11:03:31.706Z,1936.00
2018-05-03T11:04:31.727Z,2016.00
2018-05-03T11:05:31.934Z,2072.00
2018-05-03T11:06:31.784Z,2092.00
2018-05-03T11:07:31.800Z,2140.00
2018-05-03T11:08:31.826Z,2116.00
2018-05-03T11:09:31.847Z,2096.00
2018-05-03T11:10:31.867Z,2060.00
2018-05-03T11:11:31.894Z,2036.00
2018-05-03T11:12:31.917Z,1960.00
2018-05-03T11:13:31.942Z,1912.00
2018-05-03T11:14:31.961Z,1884.00
2018-05-03T11:15:31.992Z,1744.00
2018-05-03T11:16:32.013Z,1628.00
2018-05-03T11:17:32.027Z,1604.00
2018-05-03T11:18:32.061Z,1612.00
2018-05-03T11:19:32.074Z,1700.00
2018-05-03T11:20:32.110Z,1712.00
2018-05-03T11:21:32.130Z,1812.00
2018-05-03T11:22:32.163Z,1780.00
2018-05-03T11:23:32.175Z,1804.00
2018-05-03T11:24:32.203Z,1756.00
2018-05-03T11:25:32.231Z,1712.00
2018-05-03T11:26:32.240Z,1748.00
2018-05-03T11:27:32.272Z,1840.00
2018-05-03T11:28:32.291Z,1896.00
2018-05-03T11:29:32.320Z,1904.00
2018-05-03T11:30:32.372Z,1896.00
2018-05-03T11:31:32.405Z,1808.00
2018-05-03T11:32:32.386Z,1728.00
2018-05-03T11:33:32.403Z,1584.00
2018-05-03T11:34:32.434Z,1528.00
2018-05-03T11:35:32.452Z,1480.00
2018-05-03T11:36:32.482Z,1512.00
2018-05-03T11:37:32.608Z,1548.00
2018-05-03T11:38:32.537Z,1580.00
2018-05-03T11:39:32.546Z,1656.00
2018-05-03T11:40:32.576Z,1616.00
2018-05-03T11:41:32.593Z,1740.00
2018-05-03T11:42:32.681Z,1840.00
2018-05-03T11:43:32.656Z,1892.00
2018-05-03T11:44:32.667Z,2020.00
2018-05-03T11:45:32.689Z,1880.00
2018-05-03T11:46:32.715Z,1916.00
2018-05-03T11:47:32.741Z,1620.00
2018-05-03T11:48:32.763Z,1892.00
2018-05-03T11:49:32.787Z,1984.00
2018-05-03T11:50:32.813Z,1988.00
2018-05-03T11:51:32.831Z,2012.00
2018-05-03T11:52:32.865Z,2116.00
2018-05-03T11:53:32.883Z,2220.00
2018-05-03T11:54:32.911Z,2184.00
2018-05-03T11:55:32.930Z,1916.00
2018-05-03T11:56:32.955Z,2460.00
2018-05-03T11:57:32.969Z,2768.00
2018-05-03T11:58:33.002Z,2948.00
2018-05-03T11:59:33.021Z,2764.00
2018-05-03T12:00:33.050Z,2716.00
2018-05-03T12:01:33.075Z,2592.00
2018-05-03T12:02:33.099Z,2456.00
2018-05-03T12:03:33.116Z,2460.00
2018-05-03T12:04:33.144Z,2552.00
2018-05-03T12:05:33.173Z,2320.00
2018-05-03T12:06:33.194Z,2260.00
2018-05-03T12:07:33.219Z,1988.00
2018-05-03T12:08:33.289Z,1824.00
2018-05-03T12:09:33.268Z,1776.00
2018-05-03T12:10:33.297Z,1708.00
2018-05-03T12:11:33.323Z,1676.00
2018-05-03T12:12:33.337Z,1644.00
2018-05-03T12:13:33.365Z,1596.00
2018-05-03T12:14:33.391Z,1520.00
2018-05-03T12:15:33.420Z,1496.00
2018-05-03T12:16:33.442Z,1592.00
2018-05-03T12:17:33.462Z,1760.00
2018-05-03T12:18:33.480Z,1972.00
2018-05-03T12:19:33.518Z,2092.00
2018-05-03T12:20:33.538Z,2164.00
2018-05-03T12:21:33.630Z,2200.00
2018-05-03T12:22:33.584Z,2140.00
2018-05-03T12:23:33.612Z,1888.00
2018-05-03T12:24:33.636Z,1748.00
2018-05-03T12:25:33.666Z,1800.00
2018-05-03T12:26:33.697Z,2092.00
2018-05-03T12:27:33.703Z,2588.00
2018-05-03T12:28:33.741Z,2748.00
2018-05-03T12:29:33.754Z,3452.00
2018-05-03T12:30:33.779Z,3360.00
2018-05-03T12:31:33.800Z,3412.00
2018-05-03T12:32:33.828Z,3408.00
2018-05-03T12:33:33.858Z,3476.00
2018-05-03T12:34:33.880Z,3588.00
2018-05-03T12:35:33.904Z,3852.00
2018-05-03T12:36:33.928Z,3580.00
2018-05-03T12:37:33.947Z,2996.00